Time;durP1;ratioP1;P1;durP2;ratioP2;P2;SDS_P1;SDS_P2;PMS_P1;PMS_P2;Temp;Humidity;BMP_temperature;BMP_pressure;BME280_temperature;BME280_humidity;BME280_pressure;Samples;Min_cycle;Max_cycle;Signal;HPM_P1;HPM_P2
2021/09/25 00:00:14;;;;;;;6.97;4.20;;;;;;;17.63;100.00;97760.31;4894423;29;20044;-80
2021/09/25 00:02:41;;;;;;;6.43;3.90;;;;;;;17.59;100.00;97756.72;4865916;29;20052;-80
2021/09/25 00:05:08;;;;;;;9.82;4.25;;;;;;;17.63;100.00;97764.97;4898673;29;20208;-79
2021/09/25 00:07:35;;;;;;;8.25;4.45;;;;;;;17.49;100.00;97762.72;4898900;29;20103;-80
2021/09/25 00:10:03;;;;;;;11.10;4.75;;;;;;;17.58;100.00;97757.84;4883181;29;20052;-80
2021/09/25 00:12:29;;;;;;;6.32;4.38;;;;;;;17.50;100.00;97749.81;4866706;29;20484;-80
2021/09/25 00:14:56;;;;;;;10.43;4.70;;;;;;;17.58;100.00;97755.13;4897179;29;20505;-79
2021/09/25 00:17:22;;;;;;;9.75;3.95;;;;;;;17.62;100.00;97741.50;4880681;29;20056;-81
2021/09/25 00:19:49;;;;;;;7.93;4.32;;;;;;;17.58;100.00;97748.84;4881611;29;20425;-80
2021/09/25 00:22:16;;;;;;;6.47;3.83;;;;;;;17.58;100.00;97740.63;4897314;29;20052;-80
2021/09/25 00:24:43;;;;;;;11.82;4.00;;;;;;;17.60;100.00;97746.56;4881888;29;20075;-79
2021/09/25 00:27:10;;;;;;;7.55;3.85;;;;;;;17.55;100.00;97753.09;4880389;29;20059;-80
2021/09/25 00:29:38;;;;;;;6.68;3.78;;;;;;;17.51;100.00;97746.72;4881630;29;20049;-80
2021/09/25 00:32:05;;;;;;;5.82;3.70;;;;;;;17.53;100.00;97740.91;4896352;29;20052;-79
2021/09/25 00:34:32;;;;;;;9.13;3.92;;;;;;;17.59;100.00;97743.03;4898363;29;20051;-79
2021/09/25 00:36:58;;;;;;;6.22;3.70;;;;;;;17.45;100.00;97738.00;4901930;29;20055;-80
2021/09/25 00:39:25;;;;;;;9.70;3.92;;;;;;;17.53;100.00;97740.91;4883957;29;20057;-81
2021/09/25 00:41:51;;;;;;;7.43;3.92;;;;;;;17.58;100.00;97740.63;4882228;29;20060;-81
2021/09/25 00:44:21;;;;;;;8.30;3.90;;;;;;;17.50;100.00;97758.81;4880831;29;20041;-80
2021/09/25 00:46:48;;;;;;;7.63;4.10;;;;;;;17.35;100.00;97746.75;4898466;29;20056;-81
2021/09/25 00:49:19;;;;;;;6.30;4.05;;;;;;;17.26;100.00;97742.63;4898496;29;20045;-80
2021/09/25 00:51:47;;;;;;;8.15;4.00;;;;;;;17.14;100.00;97738.03;4866241;29;20075;-80
2021/09/25 00:54:14;;;;;;;8.73;4.60;;;;;;;17.06;100.00;97733.53;4901873;29;20059;-80
2021/09/25 00:56:43;;;;;;;11.48;4.65;;;;;;;17.03;100.00;97739.75;4906503;29;20071;-81
2021/09/25 00:59:11;;;;;;;9.13;4.50;;;;;;;16.96;100.00;97738.75;4883301;29;20056;-81
2021/09/25 01:01:42;;;;;;;8.80;4.82;;;;;;;16.88;100.00;97743.25;4883174;29;20135;-80
2021/09/25 01:04:10;;;;;;;7.75;4.90;;;;;;;16.84;100.00;97747.84;4865936;29;20052;-80
2021/09/25 01:06:36;;;;;;;10.75;4.97;;;;;;;16.85;100.00;97748.66;4882380;29;20060;-80
2021/09/25 01:09:04;;;;;;;8.93;5.47;;;;;;;16.66;100.00;97741.94;4881660;29;20079;-80
2021/09/25 01:11:33;;;;;;;10.45;5.25;;;;;;;16.66;100.00;97760.28;4880989;29;20057;-81
2021/09/25 01:14:01;;;;;;;9.40;4.78;;;;;;;16.57;100.00;97746.75;4897786;29;20509;-80
2021/09/25 01:16:27;;;;;;;9.75;5.28;;;;;;;16.62;100.00;97759.41;4897849;29;20091;-80
2021/09/25 01:18:57;;;;;;;6.80;4.90;;;;;;;16.59;100.00;97749.97;4897046;29;20052;-80
2021/09/25 01:21:23;;;;;;;8.80;5.00;;;;;;;16.47;100.00;97760.13;4880687;29;20049;-81
2021/09/25 01:23:50;;;;;;;8.18;5.28;;;;;;;16.53;100.00;97764.22;4866067;29;20535;-80
2021/09/25 01:26:17;;;;;;;8.50;5.13;;;;;;;16.56;100.00;97758.88;4896694;29;20053;-80
2021/09/25 01:28:44;;;;;;;8.73;5.13;;;;;;;16.69;100.00;97754.91;4895515;29;20064;-80
2021/09/25 01:31:12;;;;;;;8.82;5.13;;;;;;;16.65;100.00;97761.41;4879506;29;20055;-80
2021/09/25 01:33:42;;;;;;;8.20;4.80;;;;;;;16.69;100.00;97765.84;4879353;29;20051;-79
2021/09/25 01:36:11;;;;;;;7.78;5.13;;;;;;;16.73;100.00;97763.19;4879763;29;20041;-80
2021/09/25 01:38:39;;;;;;;10.98;5.32;;;;;;;16.70;100.00;97766.63;4878671;29;20063;-80
2021/09/25 01:41:06;;;;;;;8.23;4.90;;;;;;;16.81;100.00;97759.50;4879659;29;20056;-80
2021/09/25 01:43:33;;;;;;;10.57;5.35;;;;;;;16.81;100.00;97768.50;4895605;29;20041;-80
2021/09/25 01:46:02;;;;;;;9.65;5.22;;;;;;;16.81;100.00;97765.75;4894605;29;20284;-80
2021/09/25 01:48:29;;;;;;;8.95;5.28;;;;;;;16.83;100.00;97764.63;4879494;29;20055;-80
2021/09/25 01:50:55;;;;;;;8.38;5.00;;;;;;;16.93;100.00;97767.59;4896637;29;20049;-80
2021/09/25 01:53:22;;;;;;;8.60;5.07;;;;;;;16.88;100.00;97767.88;4896303;29;20036;-80
2021/09/25 01:55:50;;;;;;;8.98;5.15;;;;;;;16.96;100.00;97766.91;4864322;29;20040;-80
2021/09/25 01:58:17;;;;;;;10.25;4.80;;;;;;;16.79;100.00;97768.06;4864347;29;20602;-80
2021/09/25 02:00:46;;;;;;;7.25;4.18;;;;;;;16.88;100.00;97770.59;4880884;29;20190;-79
2021/09/25 02:03:13;;;;;;;6.78;4.10;;;;;;;16.93;100.00;97772.31;4879950;29;20080;-79
2021/09/25 02:05:40;;;;;;;9.65;4.55;;;;;;;16.98;100.00;97772.81;4865932;29;20056;-80
2021/09/25 02:08:07;;;;;;;8.63;4.18;;;;;;;16.99;100.00;97774.41;4882428;29;20048;-80
2021/09/25 02:10:33;;;;;;;8.10;3.85;;;;;;;17.02;100.00;97770.16;4882999;29;20127;-80
2021/09/25 02:13:00;;;;;;;7.78;4.57;;;;;;;17.07;100.00;97767.16;4900425;29;20110;-80
2021/09/25 02:15:26;;;;;;;6.78;4.05;;;;;;;17.06;100.00;97760.91;4879187;29;20052;-78
2021/09/25 02:17:53;;;;;;;6.95;4.00;;;;;;;17.05;100.00;97758.53;4863892;29;20054;-79
2021/09/25 02:20:21;;;;;;;8.85;3.88;;;;;;;17.08;100.00;97764.09;4879440;29;20048;-79
2021/09/25 02:22:48;;;;;;;8.20;4.00;;;;;;;17.04;100.00;97745.97;4896029;29;20092;-78
2021/09/25 02:25:15;;;;;;;12.18;4.20;;;;;;;17.06;100.00;97754.66;4895700;29;20499;-79
2021/09/25 02:27:41;;;;;;;7.05;4.35;;;;;;;16.99;100.00;97746.25;4894665;29;20626;-80
2021/09/25 02:30:15;;;;;;;11.15;4.40;;;;;;;17.08;100.00;97758.63;4879431;29;20052;-79
2021/09/25 02:32:43;;;;;;;7.63;4.10;;;;;;;17.13;100.00;97755.63;4879771;29;20505;-79
2021/09/25 02:35:12;;;;;;;8.95;4.25;;;;;;;17.07;100.00;97767.97;4880278;29;20497;-78
2021/09/25 02:37:38;;;;;;;6.70;4.20;;;;;;;17.01;100.00;97757.66;4895608;29;20076;-78
2021/09/25 02:40:06;;;;;;;7.63;4.18;;;;;;;16.93;100.00;97755.91;4897870;29;20041;-79
2021/09/25 02:42:33;;;;;;;7.78;3.85;;;;;;;16.94;100.00;97762.94;4897351;29;20544;-79
2021/09/25 02:44:59;;;;;;;8.90;4.07;;;;;;;17.01;100.00;97768.59;4880673;29;20044;-79
2021/09/25 02:47:26;;;;;;;8.70;3.72;;;;;;;17.06;100.00;97765.59;4864846;29;20059;-79
2021/09/25 02:49:52;;;;;;;9.27;3.70;;;;;;;17.03;100.00;97763.56;4898159;29;20052;-80
2021/09/25 02:52:19;;;;;;;5.75;3.70;;;;;;;16.91;100.00;97769.91;4880902;29;20049;-79
2021/09/25 02:54:46;;;;;;;7.53;3.90;;;;;;;16.90;100.00;97764.78;4880560;29;20044;-79
2021/09/25 02:57:12;;;;;;;8.10;3.80;;;;;;;16.83;100.00;97766.19;4881605;29;20549;-79
2021/09/25 02:59:39;;;;;;;7.60;4.07;;;;;;;16.85;100.00;97765.84;4880773;29;20824;-80
2021/09/25 03:02:05;;;;;;;10.13;3.35;;;;;;;16.84;100.00;97769.72;4896424;29;20124;-80
2021/09/25 03:04:32;;;;;;;7.18;3.72;;;;;;;16.88;100.00;97758.91;4879035;29;20070;-79
2021/09/25 03:06:59;;;;;;;6.53;3.10;;;;;;;16.79;100.00;97770.78;4864819;29;20045;-78
2021/09/25 03:09:25;;;;;;;8.15;3.60;;;;;;;16.87;100.00;97768.22;4880278;29;20049;-79
2021/09/25 03:11:52;;;;;;;6.85;3.50;;;;;;;16.75;100.00;97767.16;4880855;29;20067;-80
2021/09/25 03:14:20;;;;;;;6.10;3.50;;;;;;;16.89;100.00;97777.66;4866174;29;20078;-80
2021/09/25 03:16:48;;;;;;;8.50;3.60;;;;;;;16.83;100.00;97768.13;4898650;29;20410;-80
2021/09/25 03:19:14;;;;;;;5.82;3.40;;;;;;;16.71;100.00;97773.69;4879299;29;20052;-80
2021/09/25 03:21:41;;;;;;;5.95;3.67;;;;;;;16.75;100.00;97782.75;4881683;29;20058;-80
2021/09/25 03:24:11;;;;;;;5.88;3.80;;;;;;;16.66;100.00;97777.47;4879099;29;20053;-79
2021/09/25 03:26:37;;;;;;;12.15;3.95;;;;;;;16.70;100.00;97770.16;4881252;29;20470;-79
2021/09/25 03:29:05;;;;;;;6.38;3.38;;;;;;;16.60;100.00;97775.34;4883008;29;20045;-79
2021/09/25 03:31:31;;;;;;;7.53;3.35;;;;;;;16.58;100.00;97778.44;4899607;29;20131;-78
2021/09/25 03:33:58;;;;;;;5.13;3.38;;;;;;;16.54;100.00;97776.75;4899371;29;20751;-80
2021/09/25 03:36:24;;;;;;;7.47;3.85;;;;;;;16.55;100.00;97772.84;4882552;29;20044;-79
2021/09/25 03:38:51;;;;;;;7.25;3.53;;;;;;;16.41;100.00;97770.53;4881768;29;20100;-81
2021/09/25 03:41:18;;;;;;;5.60;3.63;;;;;;;16.53;100.00;97770.50;4882693;29;20056;-78
2021/09/25 03:43:50;;;;;;;7.50;3.90;;;;;;;16.36;100.00;97767.25;4881987;29;20047;-79
2021/09/25 03:46:18;;;;;;;8.40;4.20;;;;;;;16.31;100.00;97764.78;4881821;29;20044;-79
2021/09/25 03:48:46;;;;;;;7.25;4.18;;;;;;;16.30;100.00;97766.69;4866640;29;20498;-79
2021/09/25 03:51:12;;;;;;;5.68;3.63;;;;;;;16.16;100.00;97772.56;4898380;29;20048;-80
2021/09/25 03:53:39;;;;;;;5.28;3.85;;;;;;;16.09;100.00;97766.91;4880765;29;20421;-79
2021/09/25 03:56:09;;;;;;;8.85;3.72;;;;;;;15.88;100.00;97763.56;4879550;29;20052;-79
2021/09/25 03:58:37;;;;;;;7.72;4.10;;;;;;;15.75;100.00;97778.38;4896863;29;20055;-79
2021/09/25 04:01:04;;;;;;;6.25;3.83;;;;;;;15.63;100.00;97769.41;4866094;29;20056;-80
2021/09/25 04:03:31;;;;;;;8.70;3.85;;;;;;;15.64;100.00;97777.25;4898127;29;20045;-79
2021/09/25 04:06:01;;;;;;;7.65;3.88;;;;;;;15.54;100.00;97777.72;4881241;29;20456;-79
2021/09/25 04:08:32;;;;;;;8.23;3.88;;;;;;;15.34;100.00;97779.44;4897767;29;20048;-80
2021/09/25 04:10:59;;;;;;;8.77;4.05;;;;;;;15.29;100.00;97781.59;4866021;29;20045;-80
2021/09/25 04:13:28;;;;;;;8.20;4.68;;;;;;;15.26;100.00;97779.53;4885073;29;20045;-80
2021/09/25 04:15:54;;;;;;;7.50;4.57;;;;;;;15.42;100.00;97781.25;4878631;29;20053;-80
2021/09/25 04:18:21;;;;;;;9.10;4.70;;;;;;;15.47;100.00;97782.97;4895400;29;20528;-79
2021/09/25 04:20:48;;;;;;;7.32;4.90;;;;;;;15.43;100.00;97782.81;4898033;29;20466;-80
2021/09/25 04:23:14;;;;;;;11.98;5.10;;;;;;;15.44;100.00;97778.16;4897725;29;20049;-79
2021/09/25 04:25:41;;;;;;;6.78;4.95;;;;;;;15.30;100.00;97781.25;4880301;29;20051;-80
2021/09/25 04:28:09;;;;;;;6.85;4.68;;;;;;;15.29;100.00;97787.03;4897235;29;20425;-80
2021/09/25 04:30:37;;;;;;;7.53;4.97;;;;;;;15.26;100.00;97780.34;4898639;29;20045;-79
2021/09/25 04:33:06;;;;;;;8.00;5.20;;;;;;;15.12;100.00;97782.63;4897984;29;20085;-79
2021/09/25 04:35:33;;;;;;;7.07;5.18;;;;;;;15.11;100.00;97791.13;4881107;29;20048;-79
2021/09/25 04:38:00;;;;;;;7.93;5.80;;;;;;;14.96;100.00;97789.88;4895775;29;20044;-78
2021/09/25 04:40:29;;;;;;;7.40;5.20;;;;;;;15.03;100.00;97790.09;4881467;29;20040;-79
2021/09/25 04:43:00;;;;;;;8.10;5.30;;;;;;;14.98;100.00;97779.41;4896265;29;20052;-80
2021/09/25 04:45:28;;;;;;;8.95;5.13;;;;;;;14.96;100.00;97781.69;4880498;29;20102;-80
2021/09/25 04:47:55;;;;;;;7.50;5.15;;;;;;;14.89;100.00;97778.75;4897390;29;20040;-79
2021/09/25 04:50:24;;;;;;;7.75;4.78;;;;;;;14.93;100.00;97790.56;4895799;29;20513;-78
2021/09/25 04:52:51;;;;;;;8.05;5.03;;;;;;;14.86;100.00;97791.13;4879666;29;20052;-79
2021/09/25 04:55:18;;;;;;;12.60;5.05;;;;;;;14.81;100.00;97790.53;4864781;29;20273;-79
2021/09/25 04:57:44;;;;;;;7.90;5.20;;;;;;;14.76;100.00;97791.53;4880426;29;20044;-80
2021/09/25 05:00:12;;;;;;;9.70;5.32;;;;;;;14.73;100.00;97786.78;4879198;29;20540;-82
2021/09/25 05:02:38;;;;;;;10.20;5.68;;;;;;;14.76;100.00;97791.53;4897131;29;20490;-78
2021/09/25 05:05:06;;;;;;;9.18;5.03;;;;;;;14.81;100.00;97796.00;4880033;29;20041;-78
2021/09/25 05:07:35;;;;;;;8.73;5.30;;;;;;;14.82;100.00;97806.53;4864363;29;20101;-78
2021/09/25 05:10:02;;;;;;;8.80;4.50;;;;;;;14.86;100.00;97804.75;4896331;29;20044;-78
2021/09/25 05:12:29;;;;;;;10.25;5.43;;;;;;;14.84;100.00;97804.28;4897494;29;20044;-78
2021/09/25 05:14:55;;;;;;;8.10;5.07;;;;;;;14.88;100.00;97813.38;4880669;29;20056;-78
2021/09/25 05:17:23;;;;;;;11.18;4.60;;;;;;;15.12;100.00;97820.00;4881997;29;20040;-80
2021/09/25 05:19:49;;;;;;;8.82;4.22;;;;;;;15.20;100.00;97813.66;4881314;29;20044;-78
2021/09/25 05:22:16;;;;;;;9.00;4.53;;;;;;;15.41;100.00;97826.03;4882038;29;20048;-79
2021/09/25 05:24:44;;;;;;;7.78;4.28;;;;;;;15.52;100.00;97820.94;4899053;29;20041;-77
2021/09/25 05:27:12;;;;;;;8.80;4.38;;;;;;;15.56;100.00;97816.41;4898823;29;20064;-80
2021/09/25 05:29:41;;;;;;;7.03;3.78;;;;;;;15.75;100.00;97813.84;4909244;29;20059;-79
2021/09/25 05:32:08;;;;;;;8.10;4.07;;;;;;;15.85;100.00;97826.22;4902077;29;20060;-80
2021/09/25 05:34:35;;;;;;;6.55;4.03;;;;;;;15.97;100.00;97831.69;4884197;29;20052;-81
2021/09/25 05:37:01;;;;;;;6.97;3.90;;;;;;;15.97;100.00;97829.75;4884258;29;20041;-79
2021/09/25 05:39:28;;;;;;;7.53;3.72;;;;;;;15.97;100.00;97828.97;4886839;29;21336;-78
2021/09/25 05:41:55;;;;;;;9.15;3.80;;;;;;;16.09;100.00;97831.66;4904684;29;20056;-79
2021/09/25 05:44:21;;;;;;;6.68;3.40;;;;;;;16.06;100.00;97827.69;4885900;29;20505;-79
2021/09/25 05:46:48;;;;;;;6.85;3.65;;;;;;;16.14;100.00;97834.94;4882752;29;20056;-79
2021/09/25 05:49:14;;;;;;;6.03;3.38;;;;;;;16.10;100.00;97834.03;4898221;29;20049;-77
2021/09/25 05:51:41;;;;;;;8.38;3.30;;;;;;;16.25;100.00;97824.31;4881108;29;20486;-78
2021/09/25 05:54:08;;;;;;;5.70;3.90;;;;;;;16.31;100.00;97838.53;4881234;29;20476;-79
2021/09/25 05:56:34;;;;;;;9.65;4.05;;;;;;;16.37;100.00;97832.47;4880660;29;20067;-79
2021/09/25 05:59:01;;;;;;;6.80;3.63;;;;;;;16.40;100.00;97825.50;4916048;23;20066;-84
2021/09/25 06:01:27;;;;;;;9.27;3.70;;;;;;;16.37;100.00;97837.94;4934098;29;20376;-83
2021/09/25 06:03:54;;;;;;;7.47;3.78;;;;;;;16.38;100.00;97830.53;4934975;29;20125;-86
2021/09/25 06:06:21;;;;;;;7.25;3.72;;;;;;;16.47;100.00;97837.44;4936206;29;20510;-83
2021/09/25 06:08:48;;;;;;;5.63;3.60;;;;;;;16.76;100.00;97849.97;4945649;29;20323;-83
2021/09/25 06:11:15;;;;;;;5.30;3.70;;;;;;;16.72;100.00;97838.16;4934002;29;20555;-83
2021/09/25 06:13:42;;;;;;;5.10;3.80;;;;;;;16.91;100.00;97845.69;4934226;29;20054;-83
2021/09/25 06:16:09;;;;;;;6.72;3.97;;;;;;;16.77;100.00;97843.38;4902255;29;20477;-83
2021/09/25 06:18:36;;;;;;;5.95;3.60;;;;;;;16.75;100.00;97837.44;4901353;29;20051;-83
2021/09/25 06:21:03;;;;;;;8.52;3.45;;;;;;;16.78;100.00;97845.75;4916992;29;20535;-84
2021/09/25 06:23:29;;;;;;;7.22;3.58;;;;;;;16.62;100.00;97849.59;4917804;29;20055;-83
2021/09/25 06:25:56;;;;;;;6.78;3.78;;;;;;;16.91;100.00;97840.22;4918367;29;20044;-83
2021/09/25 06:28:23;;;;;;;9.43;3.67;;;;;;;16.84;100.00;97851.75;4917044;29;20047;-84
2021/09/25 06:30:49;;;;;;;6.10;3.90;;;;;;;16.90;100.00;97842.16;4917772;29;20147;-84
2021/09/25 06:33:17;;;;;;;7.03;3.92;;;;;;;17.23;100.00;97848.09;4934571;29;20158;-83
2021/09/25 06:35:43;;;;;;;6.20;3.83;;;;;;;17.27;100.00;97848.97;4915081;29;20040;-84
2021/09/25 06:38:10;;;;;;;7.40;3.55;;;;;;;17.07;100.00;97858.25;4914893;29;20056;-86
2021/09/25 06:40:37;;;;;;;5.50;3.58;;;;;;;17.11;100.00;97853.66;4910939;29;20047;-84
2021/09/25 06:43:03;;;;;;;6.13;3.88;;;;;;;16.93;100.00;97862.56;4927566;29;20364;-84
2021/09/25 06:45:32;;;;;;;10.57;3.45;;;;;;;17.06;100.00;97866.81;4942585;29;20048;-85
2021/09/25 06:47:59;;;;;;;6.20;3.40;;;;;;;17.13;100.00;97862.31;4944110;28;20714;-85
2021/09/25 06:50:26;;;;;;;9.40;3.47;;;;;;;17.04;100.00;97863.59;4944563;29;20043;-86
2021/09/25 06:52:52;;;;;;;7.00;3.30;;;;;;;17.07;100.00;97852.78;4927823;29;20484;-86
2021/09/25 06:55:19;;;;;;;6.68;3.58;;;;;;;17.08;100.00;97859.03;4910327;29;20043;-85
2021/09/25 06:57:46;;;;;;;7.50;3.58;;;;;;;17.13;100.00;97843.16;4928197;29;20086;-84
2021/09/25 07:00:13;;;;;;;3.60;2.90;;;;;;;17.36;100.00;97852.34;4894916;29;20074;-83
2021/09/25 07:02:41;;;;;;;5.13;3.08;;;;;;;17.31;100.00;97851.81;4904300;29;20051;-86
2021/09/25 07:05:09;;;;;;;9.20;3.10;;;;;;;17.29;100.00;97868.56;4907611;29;20137;-85
2021/09/25 07:07:36;;;;;;;4.75;3.22;;;;;;;17.31;100.00;97868.25;4904205;29;20051;-85
2021/09/25 07:10:04;;;;;;;5.03;3.15;;;;;;;17.36;100.00;97876.19;4933582;29;20508;-83
2021/09/25 07:12:31;;;;;;;6.75;3.40;;;;;;;17.42;100.00;97870.06;4898923;29;20060;-82
2021/09/25 07:14:59;;;;;;;6.07;3.63;;;;;;;17.41;100.00;97871.25;4930615;29;20483;-84
2021/09/25 07:17:25;;;;;;;5.95;3.40;;;;;;;17.52;100.00;97867.97;4931789;29;20059;-83
2021/09/25 07:19:52;;;;;;;7.95;3.45;;;;;;;17.63;100.00;97877.25;4932454;29;20122;-80
2021/09/25 07:22:19;;;;;;;4.28;3.33;;;;;;;17.63;100.00;97882.72;4930677;29;20059;-79
2021/09/25 07:24:45;;;;;;;7.82;3.78;;;;;;;17.77;100.00;97883.88;4931109;29;20154;-83
2021/09/25 07:27:12;;;;;;;5.38;3.28;;;;;;;17.63;100.00;97878.03;4931883;29;20469;-80
2021/09/25 07:29:38;;;;;;;7.22;3.40;;;;;;;17.91;100.00;97877.94;4933073;29;20055;-79
2021/09/25 07:32:06;;;;;;;6.03;3.15;;;;;;;17.97;100.00;97895.66;4909903;29;20112;-84
2021/09/25 07:34:32;;;;;;;7.13;3.83;;;;;;;17.92;100.00;97890.47;4915253;29;20135;-82
2021/09/25 07:36:59;;;;;;;7.30;3.65;;;;;;;17.99;100.00;97898.84;4949207;29;20051;-83
2021/09/25 07:39:26;;;;;;;7.55;3.53;;;;;;;18.06;100.00;97885.31;4949478;28;20051;-84
2021/09/25 07:41:52;;;;;;;5.85;3.40;;;;;;;17.78;100.00;97901.09;4918157;29;20097;-82
2021/09/25 07:44:19;;;;;;;4.68;3.10;;;;;;;17.81;100.00;97901.16;4912383;29;20047;-82
2021/09/25 07:46:45;;;;;;;6.70;3.72;;;;;;;18.02;100.00;97893.44;4929765;29;20139;-83
2021/09/25 07:49:12;;;;;;;5.35;3.30;;;;;;;18.07;100.00;97897.84;4912462;29;20044;-82
2021/09/25 07:51:38;;;;;;;7.00;3.45;;;;;;;18.19;100.00;97891.47;4928969;29;20405;-83
2021/09/25 07:54:06;;;;;;;6.07;3.38;;;;;;;18.26;100.00;97897.91;4923158;29;20123;-83
2021/09/25 07:56:33;;;;;;;6.22;3.53;;;;;;;18.28;100.00;97898.34;4913977;29;20227;-83
2021/09/25 07:59:00;;;;;;;5.75;3.58;;;;;;;18.28;100.00;97895.59;4931175;29;20115;-82
2021/09/25 08:01:29;;;;;;;7.53;3.47;;;;;;;18.26;100.00;97895.16;4931986;29;20460;-82
2021/09/25 08:03:57;;;;;;;7.68;3.88;;;;;;;18.44;100.00;97904.56;4898889;29;20070;-82
2021/09/25 08:06:27;;;;;;;7.18;3.70;;;;;;;18.34;100.00;97902.41;4936398;29;20099;-82
2021/09/25 08:08:54;;;;;;;6.78;3.95;;;;;;;18.47;100.00;97901.16;4922067;29;20056;-82
2021/09/25 08:11:21;;;;;;;6.47;3.83;;;;;;;18.60;100.00;97904.53;4938538;29;20054;-83
2021/09/25 08:13:47;;;;;;;8.05;3.70;;;;;;;18.77;100.00;97912.31;4914318;29;20052;-81
2021/09/25 08:16:14;;;;;;;6.22;3.67;;;;;;;18.83;100.00;97915.56;4931110;29;20039;-81
2021/09/25 08:18:40;;;;;;;6.38;4.30;;;;;;;18.84;100.00;97919.91;4913539;29;20146;-85
2021/09/25 08:21:21;;;;;;;8.80;4.43;;;;;;;18.71;100.00;97921.22;4895111;29;20145;-83
2021/09/25 08:23:48;;;;;;;8.90;3.80;;;;;;;18.93;100.00;97925.97;4911106;29;20052;-83
2021/09/25 08:26:15;;;;;;;5.95;3.50;;;;;;;19.15;100.00;97923.25;4911449;29;20054;-82
2021/09/25 08:28:41;;;;;;;8.20;4.25;;;;;;;19.29;100.00;97909.81;4912950;29;20059;-84
2021/09/25 08:31:08;;;;;;;9.20;4.38;;;;;;;19.26;100.00;97921.53;4912698;29;20067;-83
2021/09/25 08:33:34;;;;;;;9.95;4.60;;;;;;;19.19;100.00;97918.66;4911749;29;20084;-82
2021/09/25 08:36:04;;;;;;;8.55;4.38;;;;;;;19.37;100.00;97913.50;4912537;29;20048;-82
2021/09/25 08:38:30;;;;;;;6.30;3.90;;;;;;;19.25;100.00;97921.91;4895345;29;20588;-83
2021/09/25 08:40:59;;;;;;;6.88;3.55;;;;;;;19.41;100.00;97927.31;4911911;29;20044;-83
2021/09/25 08:43:26;;;;;;;7.35;3.70;;;;;;;19.21;100.00;97923.75;4917369;29;20059;-81
2021/09/25 08:46:04;;;;;;;8.30;3.97;;;;;;;19.30;100.00;97927.84;4916340;29;20044;-83
2021/09/25 08:48:34;;;;;;;5.78;3.88;;;;;;;19.67;100.00;97919.91;4916909;29;20075;-84
2021/09/25 08:51:01;;;;;;;5.25;3.83;;;;;;;19.68;100.00;97918.75;4901833;29;20120;-82
2021/09/25 08:53:28;;;;;;;8.63;3.38;;;;;;;20.08;100.00;97917.44;4900828;29;20419;-83
2021/09/25 08:55:55;;;;;;;7.10;3.78;;;;;;;19.92;100.00;97921.09;4900235;29;20055;-83
2021/09/25 08:58:22;;;;;;;6.90;3.45;;;;;;;19.86;100.00;97919.03;4917270;29;20044;-83
2021/09/25 09:00:51;;;;;;;6.18;3.50;;;;;;;19.97;100.00;97919.22;4913871;29;20048;-83
2021/09/25 09:03:38;;;;;;;5.95;3.78;;;;;;;20.11;100.00;97914.72;4914589;29;20517;-83
2021/09/25 09:06:11;;;;;;;6.40;3.30;;;;;;;20.16;100.00;97921.84;4889450;29;20067;-83
2021/09/25 09:08:39;;;;;;;7.30;3.40;;;;;;;20.33;100.00;97915.84;4914984;29;20052;-83
2021/09/25 09:11:07;;;;;;;6.82;3.30;;;;;;;20.42;100.00;97919.91;4915131;29;20052;-83
2021/09/25 09:13:40;;;;;;;5.63;3.10;;;;;;;20.79;100.00;97919.22;4917839;29;20064;-83
2021/09/25 09:16:08;;;;;;;4.95;2.80;;;;;;;20.40;100.00;97921.44;4914492;29;20063;-83
2021/09/25 09:18:39;;;;;;;4.78;2.63;;;;;;;20.55;100.00;97916.91;4915289;29;20044;-84
2021/09/25 09:21:15;;;;;;;4.82;2.78;;;;;;;20.71;100.00;97914.78;4884121;29;20048;-82
2021/09/25 09:23:47;;;;;;;5.10;2.38;;;;;;;20.56;100.00;97926.78;4914229;29;20044;-85
2021/09/25 09:26:17;;;;;;;4.40;3.22;;;;;;;20.53;100.00;97928.31;4913765;29;20059;-84
2021/09/25 09:28:46;;;;;;;6.50;2.55;;;;;;;20.65;100.00;97928.06;4913644;29;20241;-84
2021/09/25 09:31:14;;;;;;;4.53;2.60;;;;;;;20.82;100.00;97927.53;4914588;29;20055;-83
2021/09/25 09:33:44;;;;;;;4.32;2.35;;;;;;;21.06;100.00;97932.53;4915774;29;20048;-83
2021/09/25 09:36:18;;;;;;;3.55;2.17;;;;;;;21.18;100.00;97925.19;4915335;29;20385;-84
2021/09/25 09:39:06;;;;;;;6.03;2.45;;;;;;;21.05;100.00;97921.88;4917228;29;20052;-84
2021/09/25 09:41:45;;;;;;;4.95;2.75;;;;;;;20.86;100.00;97917.34;4918068;29;20055;-83
2021/09/25 09:44:16;;;;;;;7.70;3.05;;;;;;;20.81;100.00;97922.38;4900313;29;20067;-83
2021/09/25 09:46:46;;;;;;;7.22;2.97;;;;;;;21.02;100.00;97923.44;4915813;29;20056;-83
2021/09/25 09:49:34;;;;;;;5.18;3.17;;;;;;;21.43;100.00;97924.28;4898492;29;20124;-83
2021/09/25 09:52:06;;;;;;;8.25;3.05;;;;;;;21.50;100.00;97926.31;4915791;29;20484;-83
2021/09/25 09:54:36;;;;;;;6.50;2.65;;;;;;;21.52;100.00;97935.00;4915621;29;20058;-84
2021/09/25 09:57:16;;;;;;;4.68;3.05;;;;;;;21.71;100.00;97912.72;4917740;29;20044;-82
2021/09/25 09:59:44;;;;;;;5.18;2.50;;;;;;;22.12;100.00;97917.00;4915772;29;20067;-85
2021/09/25 10:02:11;;;;;;;8.30;2.85;;;;;;;21.99;100.00;97917.72;4914842;29;20052;-83
2021/09/25 10:04:39;;;;;;;8.10;2.53;;;;;;;22.32;100.00;97912.81;4896432;29;20070;-82
2021/09/25 10:07:06;;;;;;;3.20;2.40;;;;;;;22.72;100.00;97909.13;4915015;29;20382;-83
2021/09/25 10:09:35;;;;;;;5.10;2.70;;;;;;;22.38;100.00;97915.22;4911779;29;20058;-84
2021/09/25 10:12:10;;;;;;;5.90;2.95;;;;;;;22.45;100.00;97915.25;4908909;29;20267;-82
2021/09/25 10:14:41;;;;;;;4.72;2.67;;;;;;;23.22;94.51;97921.13;4910472;29;20453;-83
2021/09/25 10:17:10;;;;;;;3.90;2.42;;;;;;;24.41;82.58;97919.63;4910909;29;20044;-83
2021/09/25 10:19:40;;;;;;;4.22;2.72;;;;;;;24.57;76.06;97919.22;4911117;29;20044;-83
2021/09/25 10:22:16;;;;;;;3.72;2.20;;;;;;;24.90;69.56;97921.50;4911138;29;20047;-83
2021/09/25 10:24:53;;;;;;;4.13;2.55;;;;;;;26.37;61.59;97923.66;4896639;29;20099;-81
2021/09/25 10:27:21;;;;;;;4.07;2.25;;;;;;;26.92;59.00;97917.94;4942534;29;20051;-83
2021/09/25 10:29:50;;;;;;;4.13;2.50;;;;;;;25.89;60.91;97912.56;4934346;29;20104;-81
2021/09/25 10:32:26;;;;;;;3.30;2.20;;;;;;;26.78;57.83;97910.56;4939533;29;20055;-83
2021/09/25 10:34:55;;;;;;;6.88;2.20;;;;;;;28.25;50.47;97900.44;4916105;29;20043;-82
2021/09/25 10:37:22;;;;;;;3.63;2.20;;;;;;;28.31;50.30;97902.31;4931648;29;20138;-83
2021/09/25 10:39:58;;;;;;;3.17;1.98;;;;;;;27.56;50.09;97907.53;4908974;29;20086;-82
2021/09/25 10:42:46;;;;;;;3.33;2.03;;;;;;;27.59;52.06;97906.69;4939807;29;20059;-83
2021/09/25 10:45:23;;;;;;;5.57;1.77;;;;;;;28.25;49.36;97897.66;4939471;29;20099;-82
2021/09/25 10:48:22;;;;;;;3.15;2.10;;;;;;;28.64;47.97;97902.53;4939871;29;20118;-84
2021/09/25 10:50:57;;;;;;;4.07;2.00;;;;;;;28.83;45.56;97890.63;4908352;29;20074;-83
2021/09/25 10:53:32;;;;;;;4.72;2.05;;;;;;;28.18;48.20;97908.94;4922698;29;20069;-82
2021/09/25 10:56:03;;;;;;;3.42;1.98;;;;;;;28.45;47.73;97901.28;4923956;29;20108;-84
2021/09/25 10:58:40;;;;;;;2.95;1.90;;;;;;;27.98;48.90;97897.69;4940676;29;20059;-83
2021/09/25 11:01:12;;;;;;;4.88;2.00;;;;;;;28.56;46.95;97895.50;4940609;29;20048;-83
2021/09/25 11:03:43;;;;;;;4.05;2.22;;;;;;;27.63;49.62;97904.66;4942816;29;20043;-85
2021/09/25 11:06:13;;;;;;;4.25;2.28;;;;;;;27.10;51.10;97910.16;4942622;29;20654;-83
2021/09/25 11:09:06;;;;;;;6.32;2.42;;;;;;;24.44;66.82;97907.75;4951202;29;20090;-83
2021/09/25 11:11:47;;;;;;;3.92;2.30;;;;;;;24.89;72.39;97900.50;4945248;29;20044;-83
2021/09/25 11:14:23;;;;;;;4.13;2.47;;;;;;;26.01;62.85;97909.31;4933254;29;20371;-83
2021/09/25 11:17:10;;;;;;;3.85;2.30;;;;;;;27.96;51.87;97894.56;4925405;29;20444;-83
2021/09/25 11:19:40;;;;;;;10.80;2.20;;;;;;;29.52;46.08;97895.88;4916684;29;20098;-82
2021/09/25 11:22:24;;;;;;;5.03;2.60;;;;;;;29.75;46.95;97892.16;4946781;29;20055;-81
2021/09/25 11:24:53;;;;;;;3.83;2.50;;;;;;;28.33;48.62;97893.53;4927313;29;20131;-85
2021/09/25 11:27:27;;;;;;;4.13;2.67;;;;;;;29.22;46.27;97892.56;4944392;29;20048;-83
2021/09/25 11:29:55;;;;;;;2.90;2.17;;;;;;;29.12;46.51;97897.16;4924495;29;20106;-82
2021/09/25 11:32:24;;;;;;;3.65;2.28;;;;;;;29.80;44.18;97897.25;4924597;29;20052;-83